Time;durP1;ratioP1;P1;durP2;ratioP2;P2;SDS_P1;SDS_P2;PMS_P1;PMS_P2;Temp;Humidity;BMP_temperature;BMP_pressure;BME280_temperature;BME280_humidity;BME280_pressure;Samples;Min_cycle;Max_cycle;Signal;HPM_P1;HPM_P2
2021/12/30 00:00:30;;;;;;;1.40;1.30;;;;;;;-12.96;76.22;99564.63;4936889;29;20146;-87
2021/12/30 00:02:58;;;;;;;1.10;1.10;;;;;;;-12.99;75.86;99567.38;4939051;29;20055;-88
2021/12/30 00:05:25;;;;;;;1.10;1.10;;;;;;;-12.99;75.96;99561.34;4940559;29;20043;-87
2021/12/30 00:07:52;;;;;;;1.20;1.20;;;;;;;-13.03;76.29;99560.69;4938997;29;20063;-88
2021/12/30 00:10:19;;;;;;;1.08;1.08;;;;;;;-12.99;76.09;99566.53;4938744;29;20055;-88
2021/12/30 00:12:47;;;;;;;1.50;1.40;;;;;;;-12.96;76.13;99566.38;4937895;29;20071;-88
2021/12/30 00:15:14;;;;;;;1.40;1.30;;;;;;;-12.94;76.24;99565.34;4938070;29;20068;-88
2021/12/30 00:17:41;;;;;;;1.58;1.48;;;;;;;-12.93;76.61;99558.44;4938070;29;20075;-88
2021/12/30 00:20:09;;;;;;;1.33;1.23;;;;;;;-12.92;76.26;99557.50;4938302;29;20055;-87
2021/12/30 00:22:37;;;;;;;1.40;1.30;;;;;;;-12.90;76.15;99555.66;4920912;29;20103;-87
2021/12/30 00:25:06;;;;;;;1.50;1.40;;;;;;;-12.86;76.29;99557.19;4938265;29;20075;-88
2021/12/30 00:27:33;;;;;;;1.27;1.20;;;;;;;-12.89;76.04;99558.16;4938689;29;20080;-87
2021/12/30 00:30:03;;;;;;;1.50;1.40;;;;;;;-12.90;76.08;99553.88;4940436;29;20423;-88
2021/12/30 00:32:30;;;;;;;1.48;1.38;;;;;;;-12.90;75.85;99566.06;4938500;29;20515;-88
2021/12/30 00:34:57;;;;;;;1.38;1.27;;;;;;;-12.82;75.95;99563.88;4937756;29;20047;-88
2021/12/30 00:37:24;;;;;;;1.42;1.33;;;;;;;-12.83;75.97;99571.78;4938277;29;20079;-88
2021/12/30 00:39:52;;;;;;;1.20;1.20;;;;;;;-12.86;75.98;99562.38;4920546;29;20047;-88
2021/12/30 00:42:19;;;;;;;1.50;1.40;;;;;;;-12.85;76.37;99569.25;4937249;29;20507;-87
2021/12/30 00:44:46;;;;;;;1.40;1.30;;;;;;;-12.81;76.21;99568.16;4937773;29;20226;-86
2021/12/30 00:47:13;;;;;;;1.23;1.20;;;;;;;-12.78;76.17;99570.59;4937437;29;20048;-88
2021/12/30 00:49:40;;;;;;;1.13;1.10;;;;;;;-12.78;76.41;99565.41;4920851;29;20048;-87
2021/12/30 00:52:08;;;;;;;1.40;1.30;;;;;;;-12.78;76.26;99570.59;4937550;29;20119;-87
2021/12/30 00:54:35;;;;;;;1.27;1.20;;;;;;;-12.69;76.44;99571.84;4937456;29;20090;-87
2021/12/30 00:57:02;;;;;;;1.45;1.35;;;;;;;-12.71;76.17;99571.06;4922009;29;20075;-87
2021/12/30 00:59:29;;;;;;;1.60;1.50;;;;;;;-12.63;76.41;99575.84;4943227;29;20051;-87
2021/12/30 01:01:56;;;;;;;1.30;1.20;;;;;;;-12.66;76.27;99567.34;4947001;29;20154;-89
2021/12/30 01:04:23;;;;;;;1.33;1.23;;;;;;;-12.69;76.29;99566.63;4947019;29;20055;-88
2021/12/30 01:06:52;;;;;;;1.50;1.40;;;;;;;-12.71;76.25;99564.16;4944606;29;20057;-87
2021/12/30 01:09:19;;;;;;;1.30;1.20;;;;;;;-12.70;76.44;99573.59;4921514;29;20055;-87
2021/12/30 01:11:46;;;;;;;1.40;1.30;;;;;;;-12.66;76.28;99558.66;4919649;29;20078;-88
2021/12/30 01:14:20;;;;;;;1.50;1.40;;;;;;;-12.63;76.24;99562.84;4937966;29;20056;-86
2021/12/30 01:16:52;;;;;;;1.40;1.30;;;;;;;-12.56;76.10;99553.81;4926725;29;20051;-86
2021/12/30 01:19:42;;;;;;;1.20;1.20;;;;;;;-12.54;76.17;99549.34;4941434;29;20056;-87
2021/12/30 01:22:11;;;;;;;1.50;1.40;;;;;;;-12.52;76.26;99544.91;4939375;29;20063;-87
2021/12/30 01:24:38;;;;;;;1.35;1.25;;;;;;;-12.49;76.03;99544.75;4906925;29;20052;-86
2021/12/30 01:27:05;;;;;;;1.38;1.27;;;;;;;-12.50;75.96;99543.06;4948529;29;20060;-86
2021/12/30 01:29:33;;;;;;;1.50;1.40;;;;;;;-12.53;76.14;99540.63;4958732;29;20079;-86
2021/12/30 01:32:00;;;;;;;1.20;1.20;;;;;;;-12.52;76.11;99544.91;4958923;29;20103;-87
2021/12/30 01:34:28;;;;;;;1.40;1.30;;;;;;;-12.51;76.09;99539.63;4925712;29;20055;-87
2021/12/30 01:36:55;;;;;;;1.40;1.30;;;;;;;-12.52;76.04;99542.31;4943683;29;20059;-87
2021/12/30 01:39:23;;;;;;;1.48;1.38;;;;;;;-12.59;76.15;99549.59;4937036;29;20084;-87
2021/12/30 01:41:51;;;;;;;1.40;1.30;;;;;;;-12.64;76.42;99550.78;4936655;29;20107;-87
2021/12/30 01:44:20;;;;;;;1.40;1.30;;;;;;;-12.60;76.59;99549.72;4937800;29;20107;-87
2021/12/30 01:46:47;;;;;;;1.50;1.40;;;;;;;-12.57;76.39;99546.94;4920475;29;20103;-87
2021/12/30 01:49:15;;;;;;;1.40;1.30;;;;;;;-12.53;76.57;99536.28;4937098;29;20142;-87
2021/12/30 01:51:43;;;;;;;1.40;1.30;;;;;;;-12.46;76.43;99537.59;4920550;29;20075;-86
2021/12/30 01:54:11;;;;;;;1.13;1.13;;;;;;;-12.49;76.41;99548.19;4936635;29;20054;-88
2021/12/30 01:56:39;;;;;;;1.30;1.20;;;;;;;-12.46;76.50;99541.97;4919449;29;20078;-87
2021/12/30 01:59:06;;;;;;;1.23;1.20;;;;;;;-12.42;76.66;99538.28;4937008;29;20082;-87
2021/12/30 02:01:34;;;;;;;1.40;1.30;;;;;;;-12.42;76.34;99545.25;4919747;29;20047;-87
2021/12/30 02:04:02;;;;;;;1.48;1.38;;;;;;;-12.39;76.71;99540.69;4936522;29;20055;-88
2021/12/30 02:06:29;;;;;;;1.40;1.30;;;;;;;-12.36;76.62;99532.72;4919770;29;20051;-88
2021/12/30 02:08:56;;;;;;;1.35;1.25;;;;;;;-12.31;76.64;99527.25;4936059;29;20052;-87
2021/12/30 02:11:25;;;;;;;1.40;1.30;;;;;;;-12.30;76.63;99539.34;4919484;29;20498;-89
2021/12/30 02:13:52;;;;;;;1.30;1.20;;;;;;;-12.32;76.74;99531.63;4936068;29;20066;-88
2021/12/30 02:16:21;;;;;;;1.40;1.30;;;;;;;-12.33;76.44;99536.91;4936306;29;20565;-87
2021/12/30 02:18:49;;;;;;;1.40;1.30;;;;;;;-12.32;76.68;99531.63;4935779;29;20059;-87
2021/12/30 02:21:16;;;;;;;1.10;1.10;;;;;;;-12.25;76.70;99526.94;4937099;29;20143;-88
2021/12/30 02:23:44;;;;;;;1.33;1.23;;;;;;;-12.27;76.68;99520.97;4919091;29;20059;-87
2021/12/30 02:26:15;;;;;;;1.08;1.08;;;;;;;-12.22;76.80;99524.13;4919145;29;20052;-87
2021/12/30 02:28:43;;;;;;;1.40;1.30;;;;;;;-12.35;76.68;99518.81;4935312;29;20059;-86
2021/12/30 02:31:13;;;;;;;1.40;1.30;;;;;;;-12.35;76.84;99520.56;4936858;29;20048;-86
2021/12/30 02:33:41;;;;;;;1.40;1.30;;;;;;;-12.28;76.94;99522.72;4936330;29;20059;-88
2021/12/30 02:36:08;;;;;;;1.40;1.30;;;;;;;-12.23;77.00;99515.50;4936060;29;20055;-88
2021/12/30 02:38:35;;;;;;;1.38;1.27;;;;;;;-12.21;76.94;99523.19;4936562;29;20126;-89
2021/12/30 02:41:03;;;;;;;1.40;1.30;;;;;;;-12.22;76.89;99517.16;4927917;29;20107;-88
2021/12/30 02:43:31;;;;;;;1.30;1.20;;;;;;;-12.17;76.90;99513.47;4917003;29;20135;-87
2021/12/30 02:45:59;;;;;;;1.30;1.20;;;;;;;-12.19;76.85;99521.34;4919081;29;20056;-88
2021/12/30 02:48:29;;;;;;;1.40;1.30;;;;;;;-12.23;76.75;99520.72;4901889;29;20079;-89
2021/12/30 02:50:59;;;;;;;1.40;1.30;;;;;;;-12.22;76.87;99505.94;4918792;29;20044;-91
2021/12/30 02:53:27;;;;;;;1.23;1.20;;;;;;;-12.16;77.03;99512.53;4918273;29;20416;-88
2021/12/30 02:55:54;;;;;;;1.10;1.10;;;;;;;-12.14;77.03;99514.13;4918861;29;20052;-89
2021/12/30 02:58:23;;;;;;;1.50;1.40;;;;;;;-12.12;77.10;99514.03;4917944;29;20080;-88
2021/12/30 03:00:58;;;;;;;1.30;1.20;;;;;;;-12.08;76.94;99516.34;4918078;29;20048;-88
2021/12/30 03:03:26;;;;;;;1.40;1.30;;;;;;;-12.15;76.97;99515.06;4917515;29;20546;-88
2021/12/30 03:05:59;;;;;;;1.35;1.25;;;;;;;-12.12;77.21;99522.69;4901395;29;20147;-87
2021/12/30 03:08:26;;;;;;;1.40;1.30;;;;;;;-12.12;77.39;99511.44;4920851;29;20519;-85
2021/12/30 03:10:54;;;;;;;1.48;1.38;;;;;;;-12.12;77.21;99506.25;4929017;29;20079;-88
2021/12/30 03:13:30;;;;;;;1.40;1.30;;;;;;;-12.22;77.03;99505.94;4901896;29;20530;-88
2021/12/30 03:16:03;;;;;;;1.27;1.23;;;;;;;-12.33;77.41;99503.09;4900598;29;20055;-90
2021/12/30 03:18:32;;;;;;;1.40;1.30;;;;;;;-12.29;77.56;99489.81;4919057;29;20056;-89
2021/12/30 03:21:00;;;;;;;1.40;1.30;;;;;;;-12.27;77.60;99500.97;4919449;29;20097;-87
2021/12/30 03:23:27;;;;;;;1.10;1.10;;;;;;;-12.28;77.46;99501.94;4917179;29;20056;-83
2021/12/30 03:25:54;;;;;;;1.30;1.20;;;;;;;-12.28;77.63;99507.13;4916633;29;20052;-87
2021/12/30 03:28:22;;;;;;;1.40;1.30;;;;;;;-12.34;77.63;99502.25;4917211;29;20052;-86
2021/12/30 03:30:51;;;;;;;1.30;1.20;;;;;;;-12.34;77.77;99502.25;4916569;29;20119;-86
2021/12/30 03:33:23;;;;;;;1.40;1.30;;;;;;;-12.34;77.98;99493.63;4917549;29;20054;-86
2021/12/30 03:35:50;;;;;;;1.35;1.25;;;;;;;-12.37;78.16;99497.22;4919765;29;20048;-86
2021/12/30 03:38:20;;;;;;;1.38;1.27;;;;;;;-12.33;78.07;99492.69;4920558;29;20111;-85
2021/12/30 03:40:47;;;;;;;1.30;1.20;;;;;;;-12.24;78.15;99498.19;4903615;29;20113;-86
2021/12/30 03:43:14;;;;;;;1.48;1.38;;;;;;;-12.20;78.12;99482.41;4919835;29;20051;-87
2021/12/30 03:45:41;;;;;;;1.40;1.30;;;;;;;-12.18;78.20;99491.78;4920746;29;20468;-85
2021/12/30 03:48:08;;;;;;;1.10;1.10;;;;;;;-12.17;78.01;99488.28;4889119;29;20152;-86
2021/12/30 03:50:42;;;;;;;1.35;1.25;;;;;;;-12.13;77.96;99500.19;4922299;29;20059;-88
2021/12/30 03:53:12;;;;;;;1.48;1.38;;;;;;;-12.12;78.02;99496.66;4922723;29;20419;-87
2021/12/30 03:55:39;;;;;;;1.40;1.30;;;;;;;-12.10;78.12;99504.38;4923890;29;20076;-87
2021/12/30 03:58:06;;;;;;;1.40;1.30;;;;;;;-12.06;78.20;99491.09;4909213;29;20080;-86
2021/12/30 04:00:36;;;;;;;1.40;1.30;;;;;;;-12.00;78.18;99489.88;4924295;29;20060;-86
2021/12/30 04:03:03;;;;;;;1.40;1.30;;;;;;;-11.97;78.27;99488.88;4923898;29;20067;-88
2021/12/30 04:05:31;;;;;;;1.35;1.25;;;;;;;-11.98;78.06;99480.22;4922520;29;20159;-87
2021/12/30 04:07:58;;;;;;;1.10;1.10;;;;;;;-11.91;78.03;99483.31;4917761;29;20080;-87
2021/12/30 04:10:25;;;;;;;1.40;1.30;;;;;;;-11.93;78.15;99478.19;4926504;29;20044;-86
2021/12/30 04:12:53;;;;;;;1.17;1.15;;;;;;;-11.92;78.00;99474.69;4927158;29;20076;-86
2021/12/30 04:15:20;;;;;;;1.10;1.10;;;;;;;-11.98;78.17;99472.41;4934001;29;20420;-87
2021/12/30 04:17:47;;;;;;;1.30;1.20;;;;;;;-11.93;78.25;99483.41;4930598;29;20056;-87
2021/12/30 04:20:15;;;;;;;1.40;1.30;;;;;;;-11.94;78.07;99486.09;4931048;29;20064;-87
2021/12/30 04:22:46;;;;;;;1.40;1.30;;;;;;;-11.94;78.42;99494.75;4927383;29;20539;-87
2021/12/30 04:25:15;;;;;;;1.30;1.20;;;;;;;-11.98;78.36;99492.41;4903339;29;20056;-87
2021/12/30 04:27:44;;;;;;;1.50;1.40;;;;;;;-12.03;78.35;99477.88;4902437;29;20048;-88
2021/12/30 04:30:13;;;;;;;1.42;1.33;;;;;;;-11.99;78.25;99478.56;4919321;29;20107;-88
2021/12/30 04:33:05;;;;;;;1.48;1.38;;;;;;;-12.10;78.28;99478.34;4919684;29;20135;-86
2021/12/30 04:35:33;;;;;;;1.45;1.35;;;;;;;-12.23;78.66;99481.69;4904525;29;20106;-87
2021/12/30 04:38:00;;;;;;;1.05;1.05;;;;;;;-12.26;78.47;99484.44;4919544;29;20120;-87
2021/12/30 04:40:28;;;;;;;1.50;1.40;;;;;;;-12.25;78.49;99487.91;4903809;29;20100;-87
2021/12/30 04:42:55;;;;;;;1.30;1.20;;;;;;;-12.31;78.71;99496.03;4927272;29;20063;-86
2021/12/30 04:45:22;;;;;;;1.40;1.30;;;;;;;-12.31;78.76;99490.84;4935873;29;20048;-87
2021/12/30 04:47:49;;;;;;;1.45;1.35;;;;;;;-12.30;78.98;99490.75;4925744;29;20093;-86
2021/12/30 04:50:17;;;;;;;1.35;1.25;;;;;;;-12.31;78.86;99491.66;4920664;29;20091;-85
2021/12/30 04:52:44;;;;;;;1.38;1.27;;;;;;;-12.39;79.03;99490.44;4904499;29;20111;-87
2021/12/30 04:55:12;;;;;;;1.30;1.20;;;;;;;-12.34;79.15;99481.44;4923279;29;20055;-85
2021/12/30 04:57:39;;;;;;;1.40;1.30;;;;;;;-12.29;79.04;99482.00;4923709;29;20056;-86
2021/12/30 05:00:09;;;;;;;1.27;1.20;;;;;;;-12.31;78.88;99481.25;4924255;29;20048;-87
2021/12/30 05:03:22;;;;;;;1.50;1.40;;;;;;;-12.26;78.88;99475.81;4921836;29;20523;-86
2021/12/30 05:05:24;;;;;;;1.40;1.30;;;;;;;-12.20;78.90;99487.59;4911683;29;20119;-85
2021/12/30 05:07:51;;;;;;;1.40;1.30;;;;;;;-12.14;78.89;99482.06;4920111;29;20121;-85
2021/12/30 05:10:19;;;;;;;1.50;1.40;;;;;;;-12.12;78.89;99482.81;4919717;29;20206;-88
2021/12/30 05:12:46;;;;;;;1.40;1.30;;;;;;;-12.11;79.04;99481.88;4903659;29;20058;-86
2021/12/30 05:15:13;;;;;;;1.40;1.30;;;;;;;-12.11;78.99;99487.09;4920564;29;20064;-87
2021/12/30 05:17:42;;;;;;;1.40;1.30;;;;;;;-12.10;78.77;99487.00;4920117;29;20083;-87
2021/12/30 05:20:10;;;;;;;1.30;1.20;;;;;;;-12.07;78.73;99488.59;4871741;29;20048;-87
2021/12/30 05:22:36;;;;;;;1.10;1.10;;;;;;;-12.05;78.80;99489.31;4919645;29;20083;-86
2021/12/30 05:25:04;;;;;;;1.40;1.30;;;;;;;-12.07;78.85;99480.78;4904615;29;20052;-87
2021/12/30 05:27:32;;;;;;;1.10;1.10;;;;;;;-12.07;78.94;99483.38;4891972;29;20059;-85
2021/12/30 05:29:59;;;;;;;1.35;1.25;;;;;;;-12.01;78.92;99477.81;4923135;29;20077;-87
2021/12/30 05:32:26;;;;;;;1.50;1.40;;;;;;;-12.05;78.80;99465.91;4922929;29;20052;-86
2021/12/30 05:34:53;;;;;;;1.40;1.30;;;;;;;-12.03;78.92;99471.84;4913802;29;20075;-86
2021/12/30 05:37:21;;;;;;;1.60;1.50;;;;;;;-12.10;79.20;99465.31;4936228;29;20059;-87
2021/12/30 05:39:48;;;;;;;1.38;1.27;;;;;;;-12.10;79.21;99470.53;4915834;29;20120;-87
2021/12/30 05:42:22;;;;;;;1.30;1.20;;;;;;;-12.10;79.19;99476.59;4920691;29;20504;-86
2021/12/30 05:44:51;;;;;;;;;;;;;;;-12.09;79.34;99474.81;4921345;29;20546;-85
2021/12/30 05:47:18;;;;;;;1.50;1.40;;;;;;;-12.09;79.37;99487.84;4903147;29;19926;-87
2021/12/30 05:49:45;;;;;;;1.45;1.35;;;;;;;-12.06;79.23;99478.06;4921086;29;20055;-87
2021/12/30 05:52:13;;;;;;;1.40;1.30;;;;;;;-11.98;79.11;99482.84;4921513;29;20062;-86
2021/12/30 05:54:41;;;;;;;1.40;1.30;;;;;;;-11.95;79.10;99490.44;4924263;29;20062;-87
2021/12/30 05:57:09;;;;;;;1.23;1.20;;;;;;;-11.98;79.02;99500.22;4907007;29;20052;-87
2021/12/30 05:59:37;;;;;;;1.10;1.10;;;;;;;-11.96;79.05;99499.19;4887971;29;20048;-87
2021/12/30 06:02:04;;;;;;;1.50;1.40;;;;;;;-11.97;79.07;99489.72;4928445;29;20423;-86
2021/12/30 06:04:31;;;;;;;1.40;1.30;;;;;;;-12.01;78.99;99491.66;4943100;29;20077;-87
2021/12/30 06:06:58;;;;;;;1.40;1.30;;;;;;;-11.94;79.07;99489.53;4943755;29;20063;-86
2021/12/30 06:09:27;;;;;;;1.50;1.40;;;;;;;-11.88;79.33;99493.53;4594921;29;9999847;-86
2021/12/30 06:11:55;;;;;;;1.35;1.25;;;;;;;-11.89;79.14;99495.31;4935145;29;20838;-87
2021/12/30 06:14:22;;;;;;;1.40;1.30;;;;;;;-11.87;79.06;99492.63;4934314;29;20070;-85
2021/12/30 06:16:49;;;;;;;1.15;1.10;;;;;;;-11.87;78.95;99490.88;4933704;29;20111;-86
2021/12/30 06:19:16;;;;;;;1.27;1.20;;;;;;;-11.91;79.10;99497.16;4933928;29;20130;-85
2021/12/30 06:21:53;;;;;;;1.50;1.40;;;;;;;-11.96;79.12;99488.78;4936180;29;20059;-85
2021/12/30 06:24:20;;;;;;;1.40;1.30;;;;;;;-11.93;79.47;99488.59;4909616;29;20079;-86
2021/12/30 06:26:47;;;;;;;1.40;1.30;;;;;;;-11.86;79.34;99492.50;4917836;29;20060;-89
2021/12/30 06:29:17;;;;;;;1.33;1.23;;;;;;;-11.92;79.18;99492.91;4906660;29;20130;-88
2021/12/30 06:31:48;;;;;;;1.58;1.48;;;;;;;-11.95;79.41;99498.25;4916443;29;20039;-86
2021/12/30 06:34:15;;;;;;;1.50;1.40;;;;;;;-11.94;79.58;99496.53;4934079;29;20062;-87
2021/12/30 06:36:43;;;;;;;1.60;1.50;;;;;;;-11.88;79.70;99494.38;4934380;29;20091;-85
2021/12/30 06:39:12;;;;;;;1.58;1.48;;;;;;;-11.79;79.63;99499.00;4935738;29;20490;-86
2021/12/30 06:41:39;;;;;;;1.40;1.30;;;;;;;-11.72;79.50;99502.09;4937657;29;20475;-86
2021/12/30 06:44:06;;;;;;;1.50;1.40;;;;;;;-11.76;79.81;99499.75;4937077;29;20091;-87
2021/12/30 06:46:34;;;;;;;1.40;1.30;;;;;;;-11.67;79.77;99494.00;4939723;29;20078;-88
2021/12/30 06:49:08;;;;;;;1.50;1.40;;;;;;;-11.61;79.48;99493.66;4933875;29;20636;-87
2021/12/30 06:52:21;;;;;;;1.50;1.40;;;;;;;-11.68;79.42;99474.94;4841631;29;20566;-86
2021/12/30 06:54:48;;;;;;;1.50;1.40;;;;;;;-11.51;79.40;99488.72;4807330;29;20061;-87
2021/12/30 06:57:19;;;;;;;1.30;1.20;;;;;;;-11.58;79.23;99475.22;4836974;29;20136;-86
2021/12/30 06:59:50;;;;;;;1.40;1.30;;;;;;;-11.46;79.19;99479.69;4854689;29;20152;-87
2021/12/30 07:02:17;;;;;;;1.40;1.30;;;;;;;-11.46;79.28;99489.28;4849722;29;20106;-88
2021/12/30 07:04:46;;;;;;;1.40;1.30;;;;;;;-11.36;79.25;99488.63;4828133;29;20053;-87
2021/12/30 07:07:13;;;;;;;1.50;1.40;;;;;;;-11.29;79.30;99493.44;4824994;29;20081;-88
2021/12/30 07:09:41;;;;;;;1.50;1.40;;;;;;;-11.22;79.28;99486.91;4839407;29;20597;-89
2021/12/30 07:12:12;;;;;;;1.40;1.30;;;;;;;-11.20;79.17;99495.47;4858413;29;20053;-88
2021/12/30 07:14:39;;;;;;;1.35;1.25;;;;;;;-11.19;79.06;99497.16;4827652;29;20626;-85
2021/12/30 07:17:06;;;;;;;1.40;1.30;;;;;;;-11.37;79.12;99478.28;4826417;29;20046;-87
2021/12/30 07:19:34;;;;;;;1.40;1.30;;;;;;;-11.29;79.48;99502.13;4801623;29;20517;-89
2021/12/30 07:22:02;;;;;;;1.30;1.20;;;;;;;-11.19;79.47;99497.16;4868240;29;20168;-90
2021/12/30 07:24:50;;;;;;;1.40;1.30;;;;;;;-11.21;79.24;99497.25;4910846;29;20060;-87
2021/12/30 07:27:17;;;;;;;1.40;1.30;;;;;;;-11.26;79.21;99501.09;4916265;29;20428;-88
2021/12/30 07:29:44;;;;;;;1.10;1.10;;;;;;;-11.28;79.43;99490.75;4900961;29;20063;-88
2021/12/30 07:32:11;;;;;;;1.40;1.30;;;;;;;-11.10;79.30;99511.41;4872607;29;20056;-88
2021/12/30 07:34:39;;;;;;;1.10;1.10;;;;;;;-11.03;79.05;99510.09;4921429;29;20127;-88
2021/12/30 07:37:14;;;;;;;1.40;1.30;;;;;;;-11.04;79.17;99506.63;4884857;29;20052;-88
2021/12/30 07:39:46;;;;;;;1.33;1.23;;;;;;;-11.08;79.05;99514.75;4903980;29;20053;-88
2021/12/30 07:42:14;;;;;;;1.30;1.20;;;;;;;-11.17;78.94;99503.94;4853601;29;20564;-88
2021/12/30 07:44:43;;;;;;;1.35;1.25;;;;;;;-11.08;78.98;99520.81;4871731;29;20044;-87
2021/12/30 07:47:49;;;;;;;1.40;1.30;;;;;;;-11.06;79.18;99521.53;4822490;29;20106;-86
2021/12/30 07:50:17;;;;;;;1.50;1.40;;;;;;;-11.02;79.09;99530.84;4792291;29;20057;-88
2021/12/30 07:52:46;;;;;;;1.10;1.10;;;;;;;-11.04;79.13;99527.47;4810946;29;20058;-88
2021/12/30 07:55:27;;;;;;;1.13;1.10;;;;;;;-11.03;78.95;99521.34;4795958;29;20107;-88
2021/12/30 07:57:57;;;;;;;1.40;1.30;;;;;;;-10.92;78.92;99531.09;4822432;29;20078;-91
2021/12/30 08:00:25;;;;;;;1.30;1.20;;;;;;;-10.95;79.05;99519.09;4825380;29;20067;-88
2021/12/30 08:02:53;;;;;;;1.50;1.40;;;;;;;-10.81;78.97;99525.22;4829657;29;20249;-88
2021/12/30 08:05:26;;;;;;;1.40;1.30;;;;;;;-10.78;78.83;99507.63;4831700;29;20058;-87
2021/12/30 08:07:54;;;;;;;1.40;1.30;;;;;;;-10.70;78.78;99517.56;4837879;29;20057;-89
2021/12/30 08:10:24;;;;;;;1.30;1.20;;;;;;;-10.66;78.57;99513.81;4852355;29;20064;-89
2021/12/30 08:12:54;;;;;;;1.40;1.30;;;;;;;-10.71;78.87;99508.03;4830962;29;20065;-90
2021/12/30 08:15:22;;;;;;;1.30;1.20;;;;;;;-10.68;78.90;99507.88;4822395;29;20509;-90
2021/12/30 08:17:50;;;;;;;1.50;1.40;;;;;;;-10.50;78.78;99514.53;4866667;29;20087;-89
2021/12/30 08:20:22;;;;;;;1.27;1.20;;;;;;;-10.52;78.48;99503.34;4900450;29;20059;-89
2021/12/30 08:22:54;;;;;;;1.15;1.15;;;;;;;-10.57;78.29;99484.53;4890991;29;20097;-89
2021/12/30 08:25:22;;;;;;;1.30;1.20;;;;;;;-10.49;78.24;99508.34;4884731;29;20461;-89
2021/12/30 08:27:50;;;;;;;1.30;1.20;;;;;;;-10.62;78.35;99512.69;4899938;29;20056;-90
2021/12/30 08:30:22;;;;;;;1.40;1.30;;;;;;;-10.71;78.40;99505.44;4899168;29;20504;-90
2021/12/30 08:32:51;;;;;;;1.40;1.30;;;;;;;-10.75;78.56;99503.97;4902900;29;20060;-90
2021/12/30 08:35:22;;;;;;;1.50;1.40;;;;;;;-10.69;78.68;99496.56;4901989;29;20049;-87
2021/12/30 08:37:51;;;;;;;1.30;1.20;;;;;;;-10.52;78.78;99507.72;4889236;29;20048;-90
2021/12/30 08:40:39;;;;;;;1.30;1.20;;;;;;;-10.55;78.54;99493.09;4890558;29;20048;-91
2021/12/30 08:43:21;;;;;;;1.48;1.38;;;;;;;-10.35;78.68;99509.25;4891088;29;20049;-91
2021/12/30 08:46:03;;;;;;;1.10;1.10;;;;;;;-10.28;78.63;99492.22;4873034;29;20052;-89
2021/12/30 08:48:40;;;;;;;1.30;1.20;;;;;;;-10.19;78.32;99503.84;4572303;29;10000912;-91
2021/12/30 08:51:18;;;;;;;1.33;1.23;;;;;;;-10.28;78.47;99489.63;4914444;29;20048;-91
2021/12/30 08:53:55;;;;;;;1.40;1.30;;;;;;;-10.25;78.29;99489.41;4851995;29;20041;-91
2021/12/30 08:56:38;;;;;;;1.33;1.23;;;;;;;-10.26;78.41;99482.50;4913747;29;20052;-92
2021/12/30 08:59:08;;;;;;;1.13;1.13;;;;;;;-10.30;78.46;99481.09;4909707;29;20091;-92
2021/12/30 09:01:51;;;;;;;1.20;1.20;;;;;;;-10.49;78.21;99471.81;4864206;29;20148;-90
2021/12/30 09:04:46;;;;;;;1.05;1.05;;;;;;;-10.30;78.62;99492.34;4914671;29;20040;-92
2021/12/30 09:07:29;;;;;;;1.40;1.30;;;;;;;-10.18;78.55;99485.44;4846299;29;20452;-91
2021/12/30 09:10:12;;;;;;;1.20;1.15;;;;;;;-10.09;78.36;99503.13;4843636;29;20114;-89
2021/12/30 09:12:43;;;;;;;1.23;1.17;;;;;;;-10.09;78.30;99490.06;4851920;29;20144;-86
2021/12/30 09:15:23;;;;;;;1.13;1.13;;;;;;;-10.19;78.04;99473.34;4865454;29;20057;-88
2021/12/30 09:17:51;;;;;;;1.10;1.10;;;;;;;-10.06;78.13;99495.06;4891606;29;20101;-90
2021/12/30 09:20:20;;;;;;;1.10;1.10;;;;;;;-10.19;77.99;99504.66;4867543;29;20037;-92
2021/12/30 09:23:51;;;;;;;1.20;1.17;;;;;;;-10.28;78.23;99500.94;4885070;29;20060;-91
2021/12/30 09:26:21;;;;;;;1.40;1.30;;;;;;;-10.24;78.52;99498.91;4884575;29;20084;-91
2021/12/30 09:29:19;;;;;;;1.40;1.30;;;;;;;-10.21;78.57;99483.03;4897695;29;20048;-90
2021/12/30 09:32:14;;;;;;;1.00;1.00;;;;;;;-10.12;78.26;99481.59;4860196;29;20089;-89
2021/12/30 09:34:47;;;;;;;;;;;;;;;-9.98;78.20;99488.50;4849584;29;20058;-89
2021/12/30 09:37:15;;;;;;;1.23;1.20;;;;;;;-9.97;77.77;99484.97;4828007;29;19932;-91
2021/12/30 09:39:55;;;;;;;1.02;1.02;;;;;;;-10.13;77.95;99472.91;4864294;29;20053;-89
2021/12/30 09:42:39;;;;;;;;;;;;;;;-9.96;77.92;99487.47;4863076;29;20226;-85
2021/12/30 09:45:11;;;;;;;1.35;1.25;;;;;;;-10.12;78.13;99482.44;4872506;29;19928;-90
2021/12/30 09:47:55;;;;;;;1.10;1.10;;;;;;;-10.13;78.49;99490.38;4856635;29;20058;-90
2021/12/30 09:50:29;;;;;;;1.00;1.00;;;;;;;-10.20;78.49;99482.13;4845683;29;20033;-90
2021/12/30 09:53:04;;;;;;;1.17;1.17;;;;;;;-10.20;78.96;99481.25;4851471;29;20078;-89
2021/12/30 09:55:33;;;;;;;1.40;1.30;;;;;;;-10.25;79.36;99473.75;4864669;29;20076;-89
2021/12/30 09:58:00;;;;;;;1.23;1.20;;;;;;;-10.17;79.32;99476.69;4830076;29;20116;-89
2021/12/30 10:00:28;;;;;;;1.17;1.15;;;;;;;-10.13;79.31;99483.34;4862114;29;20083;-89
2021/12/30 10:02:59;;;;;;;1.00;1.00;;;;;;;-10.10;79.70;99472.72;4848210;29;20056;-90
2021/12/30 10:05:32;;;;;;;1.33;1.23;;;;;;;-9.92;79.89;99464.63;4800642;29;20142;-88
2021/12/30 10:08:10;;;;;;;1.40;1.30;;;;;;;-9.91;79.26;99467.09;4808056;29;20054;-91
2021/12/30 10:10:39;;;;;;;1.00;1.00;;;;;;;-10.06;79.24;99463.75;4830621;29;20050;-90
2021/12/30 10:13:29;;;;;;;1.40;1.30;;;;;;;-9.99;79.56;99464.19;4844722;29;20138;-90
2021/12/30 10:16:00;;;;;;;1.27;1.23;;;;;;;-10.08;79.56;99454.34;4856378;29;20457;-91
2021/12/30 10:18:48;;;;;;;1.17;1.15;;;;;;;-10.06;79.66;99457.69;4834999;29;20057;-91
2021/12/30 10:21:23;;;;;;;1.40;1.30;;;;;;;-9.99;80.25;99452.91;4831879;29;20055;-91
2021/12/30 10:24:16;;;;;;;1.33;1.23;;;;;;;-9.89;80.11;99451.34;4838321;29;20061;-91
2021/12/30 10:26:53;;;;;;;1.08;1.08;;;;;;;-9.84;80.11;99457.09;4840629;29;20078;-91
2021/12/30 10:29:21;;;;;;;1.45;1.35;;;;;;;-9.72;79.94;99448.41;4831578;29;20054;-90
2021/12/30 10:31:50;;;;;;;1.38;1.27;;;;;;;-9.68;79.86;99436.81;4849569;29;20053;-91
2021/12/30 10:34:20;;;;;;;1.30;1.20;;;;;;;-9.57;79.96;99430.00;4866041;29;20050;-89
2021/12/30 10:36:51;;;;;;;1.40;1.30;;;;;;;-9.52;79.61;99414.84;4865154;29;20081;-89
2021/12/30 10:39:25;;;;;;;1.02;1.02;;;;;;;-9.53;79.43;99421.84;4893191;29;20052;-89
2021/12/30 10:42:19;;;;;;;1.30;1.20;;;;;;;-9.65;79.26;99420.91;4884317;29;20072;-88
2021/12/30 10:44:49;;;;;;;0.88;0.88;;;;;;;-9.64;79.33;99416.53;4904637;29;20060;-90
2021/12/30 10:47:17;;;;;;;1.13;1.13;;;;;;;-9.61;79.66;99422.38;4901710;29;20135;-91
2021/12/30 10:49:59;;;;;;;1.10;1.10;;;;;;;-9.61;79.46;99417.16;4899065;29;20135;-88
2021/12/30 10:52:32;;;;;;;1.40;1.30;;;;;;;-9.65;79.54;99417.47;4893144;29;20068;-89
2021/12/30 10:55:11;;;;;;;1.23;1.20;;;;;;;-9.59;79.84;99422.28;4903258;29;20060;-93
2021/12/30 10:57:39;;;;;;;1.17;1.17;;;;;;;-9.57;79.62;99417.75;4878694;29;20177;-91
2021/12/30 11:00:08;;;;;;;0.93;0.93;;;;;;;-9.57;79.71;99419.53;4908523;29;20469;-90
2021/12/30 11:02:37;;;;;;;1.10;1.10;;;;;;;-9.51;79.95;99409.50;4899192;29;20048;-91
2021/12/30 11:05:11;;;;;;;1.40;1.30;;;;;;;-9.48;80.05;99408.47;4908688;29;20091;-90
2021/12/30 11:07:46;;;;;;;1.40;1.30;;;;;;;-9.40;79.93;99406.97;4891563;29;20085;-90
2021/12/30 11:10:16;;;;;;;0.93;0.93;;;;;;;-9.33;79.78;99420.44;4905171;29;20056;-93
2021/12/30 11:12:48;;;;;;;0.90;0.90;;;;;;;-9.55;79.38;99418.50;4906146;29;20408;-87
2021/12/30 11:15:21;;;;;;;1.00;1.00;;;;;;;-9.63;79.20;99408.56;4880411;29;20064;-88
2021/12/30 11:17:49;;;;;;;1.00;1.00;;;;;;;-9.72;79.45;99406.63;4922522;29;20084;-90
2021/12/30 11:20:18;;;;;;;1.10;1.10;;;;;;;-9.65;79.18;99405.22;4907832;29;20444;-88
2021/12/30 11:22:49;;;;;;;1.10;1.10;;;;;;;-9.51;79.39;99421.75;4920761;29;20526;-88
2021/12/30 11:25:18;;;;;;;1.17;1.17;;;;;;;-9.62;79.11;99396.34;4922137;29;20564;-89
2021/12/30 11:27:46;;;;;;;1.08;1.08;;;;;;;-9.51;78.99;99411.28;4904223;29;20044;-88
2021/12/30 11:30:19;;;;;;;1.02;1.02;;;;;;;-9.54;79.18;99412.34;4905384;29;20052;-90
2021/12/30 11:33:17;;;;;;;1.02;1.02;;;;;;;-9.53;79.42;99403.56;4929789;29;20048;-87
2021/12/30 11:35:49;;;;;;;1.38;1.27;;;;;;;-9.62;79.65;99388.50;4878491;29;20166;-88
2021/12/30 11:38:17;;;;;;;1.20;1.17;;;;;;;-9.53;79.69;99387.03;4857365;29;20053;-88
2021/12/30 11:40:45;;;;;;;0.93;0.93;;;;;;;-9.60;79.57;99382.22;4905550;29;20048;-87
2021/12/30 11:43:41;;;;;;;1.30;1.20;;;;;;;-9.52;79.62;99388.69;4889158;29;20204;-90